createdAt,value
2018-12-27T00:01:58.664Z,2.21
2018-12-27T00:04:27.984Z,2.23
2018-12-27T00:06:58.563Z,2.23
2018-12-27T00:09:28.669Z,2.22
2018-12-27T00:11:58.265Z,2.22
2018-12-27T00:14:29.960Z,2.21
2018-12-27T00:17:00.973Z,2.25
2018-12-27T00:19:30.412Z,2.25
2018-12-27T00:22:00.185Z,2.27
2018-12-27T00:24:30.157Z,2.32
2018-12-27T00:26:59.723Z,2.27
2018-12-27T00:29:29.265Z,2.33
2018-12-27T00:31:59.226Z,2.35
2018-12-27T00:34:29.285Z,2.39
2018-12-27T00:36:59.034Z,2.36
2018-12-27T00:39:28.761Z,2.39
2018-12-27T00:42:02.759Z,2.32
2018-12-27T00:44:32.759Z,2.32
2018-12-27T00:47:02.756Z,2.24
2018-12-27T00:49:32.627Z,2.24
2018-12-27T00:52:16.244Z,2.22
2018-12-27T00:54:46.099Z,2.24
2018-12-27T00:57:16.169Z,2.24
2018-12-27T00:59:48.274Z,2.15
2018-12-27T01:02:18.223Z,2.13
2018-12-27T01:04:47.897Z,2.27
2018-12-27T01:07:24.271Z,2.27
2018-12-27T01:09:53.957Z,2.25
2018-12-27T01:12:26.801Z,2.32
2018-12-27T01:15:10.977Z,2.33
2018-12-27T01:17:42.458Z,2.42
2018-12-27T01:20:12.290Z,2.42
2018-12-27T01:22:45.095Z,2.40
2018-12-27T01:25:14.854Z,2.44
2018-12-27T01:27:44.484Z,2.44
2018-12-27T01:30:14.461Z,2.37
2018-12-27T01:32:44.427Z,2.37
2018-12-27T01:35:14.359Z,2.39
2018-12-27T01:37:44.443Z,2.39
2018-12-27T01:40:17.676Z,2.40
2018-12-27T01:42:47.535Z,2.38
2018-12-27T01:45:20.962Z,2.41
2018-12-27T01:47:50.865Z,2.44
2018-12-27T01:50:23.918Z,2.44
2018-12-27T01:52:54.175Z,2.51
2018-12-27T01:55:26.461Z,2.51
2018-12-27T01:57:56.534Z,2.43
2018-12-27T02:00:27.191Z,2.36
2018-12-27T02:02:57.112Z,2.39
2018-12-27T02:05:26.962Z,2.42
2018-12-27T02:07:57.287Z,2.42
2018-12-27T02:10:33.910Z,2.41
2018-12-27T02:13:03.734Z,2.41
2018-12-27T02:15:33.637Z,2.54
2018-12-27T02:18:08.298Z,2.53
2018-12-27T02:20:37.910Z,2.53
2018-12-27T02:23:07.758Z,2.49
2018-12-27T02:25:37.625Z,2.49
2018-12-27T02:28:07.733Z,2.32
2018-12-27T02:30:43.611Z,2.32
2018-12-27T02:33:08.845Z,2.40
2018-12-27T02:35:38.575Z,2.46
2018-12-27T02:38:10.300Z,2.51
2018-12-27T02:40:40.243Z,2.55
2018-12-27T02:43:10.283Z,2.58
2018-12-27T02:45:40.066Z,2.58
2018-12-27T02:48:09.868Z,2.65
2018-12-27T02:50:40.027Z,2.58
2018-12-27T02:53:12.773Z,2.61
2018-12-27T02:55:42.539Z,2.56
2018-12-27T02:58:18.572Z,2.66
2018-12-27T03:00:44.009Z,2.63
2018-12-27T03:03:13.844Z,2.83
2018-12-27T03:05:43.947Z,2.85
2018-12-27T03:08:13.946Z,2.85
2018-12-27T03:10:43.580Z,3.02
2018-12-27T03:13:22.276Z,2.95
2018-12-27T03:15:52.040Z,3.06
2018-12-27T03:18:25.005Z,3.06
2018-12-27T03:20:54.952Z,3.11
2018-12-27T03:23:25.087Z,3.20
2018-12-27T03:25:54.862Z,3.18
2018-12-27T03:28:24.986Z,3.18
2018-12-27T03:30:54.669Z,3.18
2018-12-27T03:33:24.411Z,3.18
2018-12-27T03:35:54.200Z,3.14
2018-12-27T03:38:24.072Z,3.12
2018-12-27T03:40:54.045Z,3.12
2018-12-27T03:43:27.244Z,3.12
2018-12-27T03:45:57.217Z,3.09
2018-12-27T03:48:27.134Z,3.16
2018-12-27T03:50:57.147Z,3.21
2018-12-27T03:53:32.875Z,3.23
2018-12-27T03:55:58.368Z,3.27
2018-12-27T04:01:13.080Z,3.20
2018-12-27T04:03:40.829Z,3.23
2018-12-27T04:06:22.253Z,3.23
2018-12-27T04:08:52.222Z,3.24
2018-12-27T04:11:22.219Z,3.22
2018-12-27T04:14:03.862Z,3.18
2018-12-27T04:16:30.920Z,3.17
2018-12-27T04:19:00.534Z,3.13
2018-12-27T04:21:30.203Z,3.05
2018-12-27T04:24:00.184Z,3.05
2018-12-27T04:26:29.947Z,2.98
2018-12-27T04:28:59.612Z,3.00
2018-12-27T04:31:29.976Z,2.94
2018-12-27T04:34:09.226Z,2.85
2018-12-27T04:36:31.443Z,2.87
2018-12-27T04:39:00.893Z,2.93
2018-12-27T04:41:31.129Z,2.94
2018-12-27T04:44:04.808Z,2.97
2018-12-27T04:46:34.443Z,2.82
2018-12-27T04:49:04.236Z,2.91
2018-12-27T04:51:37.091Z,2.91
2018-12-27T04:54:13.578Z,2.96
2018-12-27T04:56:46.217Z,2.96
2018-12-27T04:59:15.804Z,3.06
2018-12-27T05:01:48.885Z,3.06
2018-12-27T05:04:18.824Z,3.09
2018-12-27T05:06:51.713Z,3.21
2018-12-27T05:09:21.283Z,3.21
2018-12-27T05:11:51.216Z,3.29
2018-12-27T05:14:20.765Z,3.26
2018-12-27T05:16:52.095Z,3.26
2018-12-27T05:19:21.937Z,3.32
2018-12-27T05:21:51.752Z,3.32
2018-12-27T05:24:24.250Z,3.32
2018-12-27T05:26:54.229Z,3.27
2018-12-27T05:29:23.913Z,3.27
2018-12-27T05:31:53.590Z,3.27
2018-12-27T05:34:26.309Z,3.20
2018-12-27T05:36:55.035Z,3.25
2018-12-27T05:39:25.969Z,3.23
2018-12-27T05:41:55.639Z,3.20
2018-12-27T05:44:25.019Z,3.18
2018-12-27T05:46:54.743Z,3.15
2018-12-27T05:49:24.102Z,2.99
2018-12-27T05:52:01.016Z,2.99
2018-12-27T05:54:30.331Z,3.02
2018-12-27T05:56:59.613Z,3.06
2018-12-27T05:59:36.729Z,3.06
2018-12-27T06:02:08.945Z,3.10
2018-12-27T06:04:38.242Z,3.10
2018-12-27T06:07:07.943Z,3.13
2018-12-27T06:09:37.563Z,3.09
2018-12-27T06:12:11.603Z,3.10
2018-12-27T06:14:37.936Z,3.03
2018-12-27T06:17:08.012Z,3.13
2018-12-27T06:19:37.271Z,3.14
2018-12-27T06:22:09.410Z,3.18
2018-12-27T06:24:46.155Z,3.18
2018-12-27T06:27:15.507Z,3.18
2018-12-27T06:29:44.840Z,3.05
2018-12-27T06:32:17.634Z,3.05
2018-12-27T06:34:46.993Z,3.20
2018-12-27T06:37:16.284Z,3.19
2018-12-27T06:39:45.645Z,3.20
2018-12-27T06:42:15.458Z,3.24
2018-12-27T06:44:44.767Z,3.24
2018-12-27T06:47:14.057Z,3.26
2018-12-27T06:49:43.410Z,3.29
2018-12-27T06:52:12.769Z,3.32
2018-12-27T06:54:42.069Z,3.32
2018-12-27T06:57:18.677Z,3.37
2018-12-27T06:59:47.971Z,3.37
2018-12-27T07:02:17.294Z,3.37
2018-12-27T07:04:48.977Z,3.37
2018-12-27T07:07:18.456Z,3.24
2018-12-27T07:09:50.723Z,3.25
2018-12-27T07:12:20.373Z,3.07
2018-12-27T07:14:49.669Z,3.18
2018-12-27T07:17:18.973Z,3.16
2018-12-27T07:19:48.465Z,3.16
2018-12-27T07:22:20.912Z,3.21
2018-12-27T07:24:50.198Z,3.13
2018-12-27T07:27:20.086Z,3.03
2018-12-27T07:29:49.367Z,3.04
2018-12-27T07:32:18.700Z,3.03
2018-12-27T07:34:47.994Z,3.08
2018-12-27T07:37:17.318Z,3.05
2018-12-27T07:39:46.893Z,2.97
2018-12-27T07:42:16.228Z,2.97
2018-12-27T07:44:45.544Z,2.97
2018-12-27T07:47:21.078Z,2.97
2018-12-27T07:49:50.425Z,3.04
2018-12-27T07:52:19.743Z,3.04
2018-12-27T07:54:56.855Z,3.09
2018-12-27T07:57:26.194Z,3.09
2018-12-27T07:59:55.526Z,3.07
2018-12-27T08:02:24.876Z,3.04
2018-12-27T08:04:54.250Z,3.04
2018-12-27T08:07:23.561Z,3.07
2018-12-27T08:09:53.219Z,3.10
2018-12-27T08:12:28.298Z,2.94
2018-12-27T08:14:57.577Z,3.09
2018-12-27T08:17:27.184Z,2.99
2018-12-27T08:19:56.589Z,2.99
2018-12-27T08:22:25.853Z,3.07
2018-12-27T08:24:55.491Z,3.07
2018-12-27T08:27:24.863Z,3.07
2018-12-27T08:29:54.137Z,3.09
2018-12-27T08:32:23.859Z,3.09
2018-12-27T08:34:53.422Z,3.04
2018-12-27T08:37:22.759Z,3.22
2018-12-27T08:39:52.388Z,3.22
2018-12-27T08:42:21.752Z,3.23
2018-12-27T08:44:54.108Z,3.23
2018-12-27T08:47:23.758Z,3.34
2018-12-27T08:49:56.355Z,3.33
2018-12-27T08:52:25.719Z,3.33
2018-12-27T08:54:55.312Z,3.34
2018-12-27T08:59:59.522Z,3.36
2018-12-27T09:02:28.801Z,3.48
2018-12-27T09:04:58.072Z,3.48
2018-12-27T09:07:27.804Z,3.59
2018-12-27T09:09:57.157Z,3.66
2018-12-27T09:12:26.541Z,3.66
2018-12-27T09:14:56.548Z,3.56
2018-12-27T09:17:32.945Z,3.63
2018-12-27T09:20:03.453Z,3.64
2018-12-27T09:22:33.191Z,3.57
2018-12-27T09:25:02.564Z,3.55
2018-12-27T09:27:31.985Z,3.59
2018-12-27T09:30:07.523Z,3.55
2018-12-27T09:32:39.855Z,3.66
2018-12-27T09:35:09.161Z,3.61
2018-12-27T09:37:38.453Z,3.66
2018-12-27T09:40:07.851Z,3.68
2018-12-27T09:42:37.455Z,3.68
2018-12-27T09:45:09.770Z,3.72
2018-12-27T09:47:39.074Z,3.72
2018-12-27T09:50:08.668Z,3.73
2018-12-27T09:52:38.032Z,3.75
2018-12-27T09:55:07.365Z,3.77
2018-12-27T09:57:36.952Z,3.69
2018-12-27T10:00:06.407Z,3.69
2018-12-27T10:02:35.705Z,3.71
2018-12-27T10:05:05.474Z,3.70
2018-12-27T10:07:34.747Z,3.78
2018-12-27T10:10:07.529Z,3.76
2018-12-27T10:12:36.807Z,3.73
2018-12-27T10:15:09.201Z,3.69
2018-12-27T10:17:39.911Z,3.70
2018-12-27T10:20:15.489Z,3.60
2018-12-27T10:22:44.874Z,3.60
2018-12-27T10:25:14.194Z,3.61
2018-12-27T10:27:43.578Z,3.50
2018-12-27T10:30:13.231Z,3.49
2018-12-27T10:32:42.571Z,3.59
2018-12-27T10:35:11.933Z,3.65
2018-12-27T10:37:41.547Z,3.60
2018-12-27T10:40:12.449Z,3.69
2018-12-27T10:42:44.718Z,3.73
2018-12-27T10:45:14.307Z,3.72
2018-12-27T10:47:43.621Z,3.77
2018-12-27T10:50:13.010Z,3.84
2018-12-27T10:52:45.477Z,3.84
2018-12-27T10:55:14.794Z,3.88
2018-12-27T10:57:51.636Z,3.88
2018-12-27T11:00:21.266Z,3.82
2018-12-27T11:02:50.725Z,3.85
2018-12-27T11:05:20.116Z,3.85
2018-12-27T11:07:51.028Z,3.98
2018-12-27T11:10:20.370Z,4.03
2018-12-27T11:12:49.861Z,4.02
2018-12-27T11:15:20.249Z,3.84
2018-12-27T11:17:49.613Z,3.96
2018-12-27T11:20:19.166Z,3.95
2018-12-27T11:22:48.785Z,4.08
2018-12-27T11:25:18.114Z,4.16
2018-12-27T11:27:47.401Z,4.18
2018-12-27T11:30:17.018Z,4.28
2018-12-27T11:32:46.375Z,4.19
2018-12-27T11:35:15.654Z,4.19
2018-12-27T11:37:45.257Z,3.90
2018-12-27T11:40:14.651Z,4.05
2018-12-27T11:42:43.950Z,4.07
2018-12-27T11:45:19.295Z,4.09
2018-12-27T11:47:48.687Z,4.18
2018-12-27T11:50:18.097Z,4.21
2018-12-27T11:52:47.467Z,4.30
2018-12-27T11:55:16.797Z,4.29
2018-12-27T11:57:46.403Z,4.24
2018-12-27T12:00:15.684Z,4.34
2018-12-27T12:02:45.041Z,4.30
2018-12-27T12:05:20.461Z,4.36
2018-12-27T12:07:49.857Z,4.31
2018-12-27T12:10:19.212Z,4.24
2018-12-27T12:12:48.825Z,4.25
2018-12-27T12:15:18.185Z,4.30
2018-12-27T12:17:52.672Z,4.44
2018-12-27T12:20:22.000Z,4.45
2018-12-27T12:22:57.418Z,4.47
2018-12-27T12:25:27.247Z,4.51
2018-12-27T12:27:56.548Z,4.51
2018-12-27T12:30:25.865Z,4.63
2018-12-27T12:32:55.554Z,4.62
2018-12-27T12:35:24.916Z,4.64
2018-12-27T12:37:54.209Z,4.58
2018-12-27T12:40:26.704Z,4.45
2018-12-27T12:42:56.117Z,4.43
2018-12-27T12:45:25.549Z,4.34
2018-12-27T12:47:55.168Z,4.30
2018-12-27T12:50:30.466Z,4.39
2018-12-27T12:52:59.866Z,4.46
2018-12-27T12:55:29.590Z,4.53
2018-12-27T12:58:08.163Z,4.44
2018-12-27T13:00:37.852Z,4.30
2018-12-27T13:03:07.610Z,4.00
2018-12-27T13:05:40.216Z,4.26
2018-12-27T13:08:09.708Z,4.30
2018-12-27T13:10:47.231Z,4.20
2018-12-27T13:13:16.828Z,4.20
2018-12-27T13:16:48.970Z,3.97
2018-12-27T13:19:18.974Z,4.09
2018-12-27T13:21:49.112Z,4.12
2018-12-27T13:24:19.006Z,4.21
2018-12-27T13:26:48.855Z,4.30
2018-12-27T13:29:19.055Z,4.30
2018-12-27T13:31:48.422Z,4.39
2018-12-27T13:34:24.205Z,4.43
2018-12-27T13:36:57.065Z,4.50
2018-12-27T13:39:26.514Z,4.32
2018-12-27T13:42:07.854Z,4.53
2018-12-27T13:44:28.210Z,4.47
2018-12-27T13:46:57.712Z,4.28
2018-12-27T13:49:27.490Z,4.29
2018-12-27T13:51:56.827Z,4.29
2018-12-27T13:54:26.762Z,4.33
2018-12-27T13:56:57.728Z,4.19
2018-12-27T13:59:27.311Z,4.09
2018-12-27T14:01:56.836Z,4.10
2018-12-27T14:04:35.388Z,4.10
2018-12-27T14:07:04.841Z,4.13
2018-12-27T14:09:34.315Z,4.15
2018-12-27T14:12:05.004Z,4.14
2018-12-27T14:14:34.311Z,4.11
2018-12-27T14:17:03.748Z,4.17
2018-12-27T14:19:33.482Z,4.13
2018-12-27T14:22:05.829Z,4.16
2018-12-27T14:24:35.366Z,4.10
2018-12-27T14:27:05.201Z,4.10
2018-12-27T14:29:34.566Z,3.98
2018-12-27T14:32:07.062Z,4.10
2018-12-27T14:34:37.310Z,4.15
2018-12-27T14:37:06.804Z,4.18
2018-12-27T14:39:36.223Z,4.19
2018-12-27T14:42:09.126Z,4.19
2018-12-27T14:44:41.760Z,4.01
2018-12-27T14:47:11.208Z,4.01
2018-12-27T14:49:41.510Z,4.11
2018-12-27T14:52:11.817Z,4.05
2018-12-27T14:54:41.380Z,3.95
2018-12-27T14:57:11.094Z,3.95
2018-12-27T14:59:40.424Z,3.87
2018-12-27T15:02:09.821Z,3.79
2018-12-27T15:04:39.458Z,3.79
2018-12-27T15:07:09.023Z,3.79
2018-12-27T15:09:38.637Z,3.80
2018-12-27T15:12:08.642Z,3.57
2018-12-27T15:14:38.221Z,3.55
2018-12-27T15:17:13.702Z,3.55
2018-12-27T15:19:43.516Z,3.55
2018-12-27T15:22:16.210Z,3.61
2018-12-27T15:24:45.882Z,3.69
2018-12-27T15:27:15.790Z,3.58
2018-12-27T15:29:45.269Z,3.38
2018-12-27T15:32:16.085Z,3.42
2018-12-27T15:34:45.801Z,3.43
2018-12-27T15:37:15.400Z,3.43
2018-12-27T15:39:45.054Z,3.43
2018-12-27T15:42:15.062Z,3.31
2018-12-27T15:44:44.697Z,3.28
2018-12-27T15:47:14.359Z,3.30
2018-12-27T15:49:44.123Z,3.24
2018-12-27T15:52:13.532Z,3.24
2018-12-27T15:54:43.054Z,3.31
2018-12-27T15:57:13.114Z,3.31
2018-12-27T15:59:42.728Z,3.03
2018-12-27T16:02:13.950Z,3.03
2018-12-27T16:04:51.310Z,3.05
2018-12-27T16:07:21.221Z,3.14
2018-12-27T16:09:51.124Z,3.30
2018-12-27T16:12:20.916Z,3.30
2018-12-27T16:14:50.354Z,3.15
2018-12-27T16:17:30.499Z,3.27
2018-12-27T16:19:59.876Z,3.29
2018-12-27T16:22:29.237Z,3.38
2018-12-27T16:58:32.931Z,3.16
2018-12-27T17:01:02.960Z,3.16
2018-12-27T17:03:32.686Z,3.05
2018-12-27T17:06:10.087Z,3.20
2018-12-27T17:08:35.152Z,3.20
2018-12-27T17:11:04.944Z,3.21
2018-12-27T17:13:34.458Z,3.13
2018-12-27T17:16:05.505Z,2.95
2018-12-27T17:18:34.973Z,2.95
2018-12-27T17:21:04.933Z,3.11
2018-12-27T17:23:34.568Z,3.24
2018-12-27T17:26:08.123Z,3.24
2018-12-27T17:28:37.535Z,3.14
2018-12-27T17:31:07.735Z,3.21
2018-12-27T17:33:43.645Z,3.21
2018-12-27T17:36:13.338Z,3.11
2018-12-27T17:38:43.358Z,3.01
2018-12-27T17:41:21.321Z,3.14
2018-12-27T17:43:51.282Z,3.14
2018-12-27T17:46:21.357Z,3.12
2018-12-27T17:48:51.028Z,3.12
2018-12-27T17:51:23.600Z,3.03
2018-12-27T17:53:53.196Z,2.95
2018-12-27T17:56:31.972Z,3.00
2018-12-27T17:59:01.733Z,3.00
2018-12-27T18:01:37.099Z,3.03
2018-12-27T18:04:11.171Z,3.06
2018-12-27T18:06:40.880Z,3.08
2018-12-27T18:09:13.584Z,3.08
2018-12-27T18:11:45.783Z,2.99
2018-12-27T18:14:23.055Z,3.05
2018-12-27T18:16:53.897Z,2.92
2018-12-27T18:19:23.815Z,2.89
2018-12-27T18:22:00.771Z,2.89
2018-12-27T18:24:30.488Z,3.07
2018-12-27T18:27:08.831Z,3.07
2018-12-27T18:29:38.734Z,2.97
2018-12-27T18:32:08.930Z,3.01
2018-12-27T18:34:39.130Z,3.00
2018-12-27T18:37:08.841Z,3.12
2018-12-27T18:39:41.745Z,3.11
2018-12-27T18:42:11.925Z,2.99
2018-12-27T18:44:41.747Z,2.87
2018-12-27T18:47:11.494Z,2.81
2018-12-27T18:49:41.731Z,2.99
2018-12-27T18:52:11.502Z,2.86
2018-12-27T18:54:44.287Z,2.86
2018-12-27T18:57:14.587Z,2.78
2018-12-27T18:59:44.421Z,2.86
2018-12-27T19:02:14.202Z,2.86
2018-12-27T19:04:44.511Z,2.90
2018-12-27T19:07:14.251Z,3.04
2018-12-27T19:09:44.009Z,3.04
2018-12-27T19:12:49.342Z,2.87
2018-12-27T19:15:22.329Z,2.77
2018-12-27T19:18:04.116Z,2.77
2018-12-27T19:20:34.756Z,2.69
2018-12-27T19:23:25.871Z,2.69
2018-12-27T19:25:46.375Z,2.72
2018-12-27T19:28:18.080Z,2.79
2018-12-27T19:30:48.062Z,2.79
2018-12-27T19:33:17.844Z,2.91
2018-12-27T19:35:47.600Z,2.82
2018-12-27T19:38:17.798Z,2.93
2018-12-27T19:40:47.663Z,2.86
2018-12-27T19:43:17.549Z,2.87
2018-12-27T19:45:47.771Z,2.89
2018-12-27T19:48:17.522Z,2.97
2018-12-27T19:50:47.356Z,3.01
2018-12-27T19:53:17.489Z,3.01
2018-12-27T19:55:47.339Z,3.02
2018-12-27T19:58:17.078Z,2.87
2018-12-27T20:00:46.908Z,2.87
2018-12-27T20:03:16.819Z,3.01
2018-12-27T20:05:47.062Z,3.01
2018-12-27T20:08:37.996Z,3.01
2018-12-27T20:11:10.956Z,3.00
2018-12-27T20:13:40.945Z,3.00
2018-12-27T20:16:10.975Z,2.92
2018-12-27T20:18:42.740Z,2.85
2018-12-27T20:21:12.589Z,2.85
2018-12-27T20:23:42.327Z,2.88
2018-12-27T20:26:12.458Z,2.96
2018-12-27T20:28:42.457Z,2.96
2018-12-27T20:31:12.434Z,2.90
2018-12-27T20:33:42.651Z,3.03
2018-12-27T20:36:14.116Z,3.03
2018-12-27T20:38:46.621Z,2.83
2018-12-27T20:41:17.722Z,2.85
2018-12-27T20:43:47.533Z,2.76
2018-12-27T20:46:17.381Z,2.72
2018-12-27T20:48:47.424Z,2.64
2018-12-27T20:51:28.780Z,2.64
2018-12-27T20:53:58.855Z,2.66
2018-12-27T20:56:31.293Z,2.69
2018-12-27T20:59:01.135Z,2.80
2018-12-27T21:01:30.940Z,2.80
2018-12-27T21:04:03.359Z,2.72
2018-12-27T21:06:33.744Z,2.73
2018-12-27T21:09:05.350Z,2.74
2018-12-27T21:11:37.058Z,2.74
2018-12-27T21:14:16.158Z,2.76
2018-12-27T21:16:49.494Z,2.76
2018-12-27T21:19:19.451Z,2.68
2018-12-27T21:21:50.476Z,2.68
2018-12-27T21:26:50.855Z,2.79
2018-12-27T21:29:20.771Z,2.56
2018-12-27T21:31:50.812Z,2.62
2018-12-27T21:34:20.633Z,2.61
2018-12-27T21:36:50.422Z,2.70
2018-12-27T21:39:20.513Z,2.62
2018-12-27T21:41:50.285Z,2.62
2018-12-27T21:44:23.050Z,2.36
2018-12-27T21:46:53.967Z,2.39
2018-12-27T21:49:23.721Z,2.39
2018-12-27T21:51:56.603Z,2.44
2018-12-27T21:54:26.591Z,2.49
2018-12-27T21:56:56.362Z,2.46
2018-12-27T21:59:26.372Z,2.46
2018-12-27T22:01:56.291Z,2.52
2018-12-27T22:04:26.127Z,2.55
2018-12-27T22:06:56.370Z,2.59
2018-12-27T22:09:26.280Z,2.59
2018-12-27T22:11:58.995Z,2.62
2018-12-27T22:14:32.270Z,2.60
2018-12-27T22:17:02.236Z,2.60
2018-12-27T22:19:38.245Z,2.51
2018-12-27T22:22:11.305Z,2.51
2018-12-27T22:24:41.643Z,2.41
2018-12-27T22:27:11.612Z,2.65
2018-12-27T22:29:41.884Z,2.57
2018-12-27T22:32:15.116Z,2.56
2018-12-27T22:34:48.841Z,2.56
2018-12-27T22:37:19.393Z,2.51
2018-12-27T22:39:58.109Z,2.69
2018-12-27T22:42:28.180Z,2.69
2018-12-27T22:44:57.813Z,2.55
2018-12-27T22:47:27.424Z,2.56
2018-12-27T22:49:57.250Z,2.55
2018-12-27T22:52:26.812Z,2.65
2018-12-27T22:54:56.448Z,2.69
2018-12-27T22:57:30.176Z,2.53
2018-12-27T22:59:59.922Z,2.55
2018-12-27T23:02:34.970Z,2.59
2018-12-27T23:05:07.718Z,2.59
2018-12-27T23:07:37.400Z,2.61
2018-12-27T23:10:07.510Z,2.43
2018-12-27T23:12:37.279Z,2.36
2018-12-27T23:15:07.175Z,2.38
2018-12-27T23:17:39.443Z,2.23
2018-12-27T23:20:09.371Z,2.23
2018-12-27T23:22:38.910Z,2.08
2018-12-27T23:25:09.043Z,2.08
2018-12-27T23:27:41.619Z,2.04
2018-12-27T23:30:11.186Z,2.10
2018-12-27T23:32:42.443Z,2.00
2018-12-27T23:35:12.569Z,2.07
2018-12-27T23:37:45.663Z,2.16
2018-12-27T23:40:15.281Z,2.16
2018-12-27T23:42:44.585Z,2.08
2018-12-27T23:45:14.037Z,2.30
2018-12-27T23:47:43.785Z,2.31
2018-12-27T23:50:16.420Z,2.31
2018-12-27T23:52:45.783Z,2.05
2018-12-27T23:55:16.019Z,2.05
2018-12-27T23:57:48.824Z,2.16
